Time;durP1;ratioP1;P1;durP2;ratioP2;P2;SDS_P1;SDS_P2;PMS_P1;PMS_P2;Temp;Humidity;BMP_temperature;BMP_pressure;BME280_temperature;BME280_humidity;BME280_pressure;Samples;Min_cycle;Max_cycle;Signal;HPM_P1;HPM_P2
2022/01/28 05:40:46;;;;;;;;;;;;;;;2.25;87.60;98470.41;4249321;27;10301;-72
2022/01/28 05:42:47;;;;;;;;;;;;;;;2.30;87.44;98478.78;4248917;27;5618;-71
2022/01/28 05:44:49;;;;;;;;;;;;;;;2.35;87.38;98474.09;4238271;27;5724;-71
2022/01/28 05:46:52;;;;;;;;;;;;;;;2.43;87.05;98463.16;4223774;28;5684;-73
2022/01/28 05:48:54;;;;;;;;;;;;;;;2.37;86.76;98468.75;4232138;28;5597;-71
2022/01/28 05:50:56;;;;;;;;;;;;;;;2.48;86.31;98468.88;4214456;28;7618;-72
2022/01/28 05:52:57;;;;;;;;;;;;;;;2.53;86.37;98470.28;4214544;28;5634;-73
2022/01/28 05:54:59;;;;;;;;;;;;;;;2.46;85.90;98476.00;4232220;28;5735;-73
2022/01/28 05:57:01;;;;;;;;;;;;;;;2.27;86.55;98477.22;4227423;28;5847;-73
2022/01/28 05:59:03;;;;;;;;;;;;;;;2.42;86.64;98466.69;4232187;28;5612;-73
2022/01/28 06:01:05;;;;;;;;;;;;;;;2.54;86.14;98474.56;4232543;28;6264;-72
2022/01/28 06:03:06;;;;;;;;;;;;;;;2.62;86.02;98482.72;4223949;28;5624;-72
2022/01/28 06:05:08;;;;;;;;;;;;;;;2.62;85.46;98481.88;4232105;28;5751;-73
2022/01/28 06:07:10;;;;;;;;;;;;;;;2.64;85.81;98480.00;4214068;28;5814;-73
2022/01/28 06:09:11;;;;;;;;;;;;;;;2.65;85.63;98476.44;4213126;28;5587;-72
2022/01/28 06:11:13;;;;;;;;;;;;;;;2.65;85.14;98486.88;4211212;28;5532;-73
2022/01/28 06:13:16;;;;;;;;;;;;;;;2.27;86.37;98495.47;4211355;28;5547;-73
2022/01/28 06:15:18;;;;;;;;;;;;;;;2.49;85.96;98481.00;4232166;28;5623;-74
2022/01/28 06:17:19;;;;;;;;;;;;;;;2.32;85.91;98489.94;4232474;28;5648;-74
2022/01/28 06:19:21;;;;;;;;;;;;;;;2.30;86.09;98510.09;4197150;28;6323;-73
2022/01/28 06:21:23;;;;;;;;;;;;;;;2.49;85.53;98514.94;4231220;28;5624;-74
2022/01/28 06:23:24;;;;;;;;;;;;;;;2.55;85.57;98518.00;4227300;28;5703;-73
2022/01/28 06:25:26;;;;;;;;;;;;;;;2.58;85.67;98503.91;4229877;28;5637;-71
2022/01/28 06:27:28;;;;;;;;;;;;;;;2.44;86.06;98515.25;4217649;28;5624;-72
2022/01/28 06:29:29;;;;;;;;;;;;;;;2.30;86.88;98518.75;4229466;28;5998;-70
2022/01/28 06:31:31;;;;;;;;;;;;;;;2.48;86.59;98521.09;4228225;28;5689;-69
2022/01/28 06:33:32;;;;;;;;;;;;;;;2.57;85.86;98516.13;4229444;28;5811;-70
2022/01/28 06:35:34;;;;;;;;;;;;;;;2.55;85.72;98519.78;4226008;28;5616;-70
2022/01/28 06:37:42;;;;;;;;;;;;;;;2.63;85.20;98514.88;4231008;28;5620;-70
2022/01/28 06:39:43;;;;;;;;;;;;;;;2.70;85.29;98510.06;4210784;28;5559;-70
2022/01/28 06:41:45;;;;;;;;;;;;;;;2.72;84.99;98521.25;4196010;28;5937;-70
2022/01/28 06:43:47;;;;;;;;;;;;;;;2.81;85.13;98518.03;4199688;28;5811;-70
2022/01/28 06:45:49;;;;;;;;;;;;;;;2.75;84.94;98527.13;4196944;28;5670;-70
2022/01/28 06:47:51;;;;;;;;;;;;;;;2.64;85.04;98529.63;4204355;28;5661;-70
2022/01/28 06:49:52;;;;;;;;;;;;;;;2.71;84.88;98528.25;4201888;28;6368;-70
2022/01/28 06:51:54;;;;;;;;;;;;;;;2.72;84.59;98537.78;4203183;28;5668;-70
2022/01/28 06:53:55;;;;;;;;;;;;;;;2.74;84.47;98537.69;4205795;28;5810;-70
2022/01/28 06:55:57;;;;;;;;;;;;;;;2.80;84.58;98540.72;4201424;28;5660;-70
2022/01/28 06:57:58;;;;;;;;;;;;;;;2.67;84.32;98547.69;4201036;28;5089;-70
2022/01/28 07:00:03;;;;;;;;;;;;;;;2.74;84.49;98548.97;4193195;28;8440;-69
2022/01/28 07:02:05;;;;;;;;;;;;;;;2.79;84.39;98546.03;4200986;28;7653;-70
2022/01/28 07:04:07;;;;;;;;;;;;;;;2.81;84.10;98544.16;4187954;28;5686;-70
2022/01/28 07:06:08;;;;;;;;;;;;;;;2.75;84.20;98552.41;4194637;28;5769;-69
2022/01/28 07:08:10;;;;;;;;;;;;;;;2.64;84.44;98547.91;4199071;28;6369;-70
2022/01/28 07:10:12;;;;;;;;;;;;;;;2.61;84.38;98559.38;4202177;28;5852;-71
2022/01/28 07:12:14;;;;;;;;;;;;;;;2.62;84.35;98555.00;4200944;28;5691;-71
2022/01/28 07:14:16;;;;;;;;;;;;;;;2.61;84.24;98548.94;4201691;28;6205;-71
2022/01/28 07:16:17;;;;;;;;;;;;;;;2.57;84.55;98549.22;4202266;28;5767;-70
2022/01/28 07:18:20;;;;;;;;;;;;;;;2.63;84.41;98547.06;4202423;28;5664;-71
2022/01/28 07:20:22;;;;;;;;;;;;;;;2.74;84.28;98553.34;4200406;28;5615;-71
2022/01/28 07:22:23;;;;;;;;;;;;;;;2.77;84.00;98555.75;4202888;28;5653;-71
2022/01/28 07:24:25;;;;;;;;;;;;;;;2.80;84.06;98566.81;4202103;28;5668;-71
2022/01/28 07:26:27;;;;;;;;;;;;;;;2.80;83.85;98569.44;4202968;28;5693;-71
2022/01/28 07:28:31;;;;;;;;;;;;;;;2.81;83.66;98560.66;4200786;28;5555;-70
2022/01/28 07:30:32;;;;;;;;;;;;;;;2.83;83.78;98564.03;4200624;28;5611;-71
2022/01/28 07:32:34;;;;;;;;;;;;;;;2.89;83.36;98570.59;4200464;28;5547;-71
2022/01/28 07:34:36;;;;;;;;;;;;;;;2.88;83.54;98567.16;4202858;28;5772;-71
2022/01/28 07:36:39;;;;;;;;;;;;;;;2.71;83.45;98574.41;4201235;28;5871;-71
2022/01/28 07:38:41;;;;;;;;;;;;;;;2.76;84.13;98567.97;4200054;28;5755;-71
2022/01/28 07:40:42;;;;;;;;;;;;;;;2.85;83.66;98567.38;4216220;28;5756;-71
2022/01/28 07:42:44;;;;;;;;;;;;;;;2.85;83.62;98580.44;4201841;28;5552;-71
2022/01/28 07:44:45;;;;;;;;;;;;;;;2.90;83.41;98590.56;4217918;28;5632;-71
2022/01/28 07:46:47;;;;;;;;;;;;;;;2.96;83.48;98603.25;4177436;28;5749;-70
2022/01/28 07:48:50;;;;;;;;;;;;;;;2.91;83.13;98611.34;4217727;28;5620;-70
2022/01/28 07:50:52;;;;;;;;;;;;;;;2.91;83.66;98613.13;4218658;28;5619;-70
2022/01/28 07:52:54;;;;;;;;;;;;;;;2.91;83.45;98607.91;4183196;28;5570;-67
2022/01/28 07:54:55;;;;;;;;;;;;;;;2.78;84.60;98610.50;4202856;28;5630;-67
2022/01/28 07:56:58;;;;;;;;;;;;;;;2.73;85.77;98603.91;4206710;28;5624;-68
2022/01/28 07:59:00;;;;;;;;;;;;;;;2.59;87.80;98608.22;4219175;28;5754;-68
2022/01/28 08:01:01;;;;;;;;;;;;;;;2.74;86.70;98611.66;4217225;28;5982;-68
2022/01/28 08:03:03;;;;;;;;;;;;;;;2.92;85.45;98614.81;4217865;28;5611;-68
2022/01/28 08:05:05;;;;;;;;;;;;;;;2.81;86.78;98612.91;4201566;28;5543;-69
2022/01/28 08:07:07;;;;;;;;;;;;;;;2.97;85.81;98606.69;4218168;28;5604;-69
2022/01/28 08:09:08;;;;;;;;;;;;;;;3.05;85.54;98593.94;4219309;28;5620;-68
2022/01/28 08:11:10;;;;;;;;;;;;;;;3.18;85.21;98597.41;4200421;28;5536;-69
2022/01/28 08:13:12;;;;;;;;;;;;;;;3.21;85.24;98610.28;4209371;28;6711;-69
2022/01/28 08:15:14;;;;;;;;;;;;;;;3.22;85.50;98606.72;4192914;28;5536;-69
2022/01/28 08:17:16;;;;;;;;;;;;;;;3.20;85.34;98613.84;4206621;28;5631;-68
2022/01/28 08:19:17;;;;;;;;;;;;;;;3.22;85.52;98623.25;4218758;28;5627;-69
2022/01/28 08:21:19;;;;;;;;;;;;;;;3.22;85.56;98628.47;4218829;28;5638;-69
2022/01/28 08:23:21;;;;;;;;;;;;;;;3.24;85.82;98625.75;4201083;28;5564;-69
2022/01/28 08:25:24;;;;;;;;;;;;;;;3.22;85.72;98625.03;4218961;28;5758;-68
2022/01/28 08:27:25;;;;;;;;;;;;;;;3.24;85.73;98624.91;4201241;28;5555;-70
2022/01/28 08:29:27;;;;;;;;;;;;;;;3.22;85.61;98623.25;4200949;28;5675;-68
2022/01/28 08:31:28;;;;;;;;;;;;;;;3.35;85.58;98623.25;4200759;28;6176;-69
2022/01/28 08:33:30;;;;;;;;;;;;;;;3.35;85.54;98638.09;4184462;28;5721;-70
2022/01/28 08:35:37;;;;;;;;;;;;;;;3.32;85.83;98628.69;4200525;28;6003;-69
2022/01/28 08:37:40;;;;;;;;;;;;;;;3.38;85.64;98625.66;4201410;28;5551;-69
2022/01/28 08:39:41;;;;;;;;;;;;;;;3.39;86.10;98618.63;4218356;28;5683;-69
2022/01/28 08:41:43;;;;;;;;;;;;;;;3.20;86.98;98645.19;4218772;28;5608;-69
2022/01/28 08:43:49;;;;;;;;;;;;;;;3.26;87.00;98647.38;4218793;28;5728;-68
2022/01/28 08:45:51;;;;;;;;;;;;;;;3.54;85.90;98640.31;4218645;28;5511;-69
2022/01/28 08:47:53;;;;;;;;;;;;;;;3.68;85.26;98640.22;4218648;28;7119;-69
2022/01/28 08:49:54;;;;;;;;;;;;;;;3.73;84.87;98644.16;4200615;28;5708;-68
2022/01/28 08:51:56;;;;;;;;;;;;;;;3.75;84.96;98647.53;4200485;28;5543;-69
2022/01/28 08:53:57;;;;;;;;;;;;;;;3.83;84.76;98646.16;4218467;28;5620;-69
2022/01/28 08:55:59;;;;;;;;;;;;;;;3.72;84.33;98649.50;4218247;28;5605;-69
2022/01/28 08:58:01;;;;;;;;;;;;;;;3.84;84.98;98651.28;4177129;28;5923;-70
2022/01/28 09:00:07;;;;;;;;;;;;;;;3.93;84.22;98657.66;4212876;28;5809;-70
2022/01/28 09:02:09;;;;;;;;;;;;;;;3.92;84.60;98656.00;4216272;28;5620;-68
2022/01/28 09:04:10;;;;;;;;;;;;;;;4.03;84.12;98667.41;4217464;28;5745;-67
2022/01/28 09:06:12;;;;;;;;;;;;;;;4.06;84.04;98672.41;4201030;28;5814;-69
2022/01/28 09:08:14;;;;;;;;;;;;;;;4.14;83.82;98673.66;4205904;28;5615;-69
2022/01/28 09:10:18;;;;;;;;;;;;;;;4.27;83.52;98679.72;4193656;28;5540;-69
2022/01/28 09:14:47;;;;;;;;;;;;;;;4.27;83.07;98674.47;4177043;28;5620;-69
2022/01/28 09:16:49;;;;;;;;;;;;;;;4.17;81.62;98678.69;4198776;28;5560;-69
2022/01/28 09:18:50;;;;;;;;;;;;;;;4.16;82.35;98667.38;4196449;28;5816;-69
2022/01/28 09:20:52;;;;;;;;;;;;;;;4.30;81.98;98672.50;4216963;28;5768;-69
2022/01/28 09:22:54;;;;;;;;;;;;;;;4.39;81.45;98673.63;4199694;28;5788;-69
2022/01/28 09:24:56;;;;;;;;;;;;;;;4.30;82.04;98684.72;4217935;28;5627;-69
2022/01/28 09:26:58;;;;;;;;;;;;;;;4.26;82.42;98701.59;4215851;28;5612;-69
2022/01/28 09:28:59;;;;;;;;;;;;;;;4.21;82.48;98701.09;4215731;28;5763;-69
2022/01/28 09:31:06;;;;;;;;;;;;;;;4.22;83.02;98701.00;4198198;28;5551;-69
2022/01/28 09:33:09;;;;;;;;;;;;;;;4.20;83.07;98705.50;4217697;28;5628;-69
2022/01/28 09:35:11;;;;;;;;;;;;;;;4.22;82.49;98700.16;4216089;28;5632;-69
2022/01/28 09:37:15;;;;;;;;;;;;;;;4.34;82.57;98694.06;4214777;28;5868;-69
2022/01/28 09:39:19;;;;;;;;;;;;;;;4.37;82.20;98696.47;4217442;28;5743;-69
2022/01/28 09:41:22;;;;;;;;;;;;;;;4.34;81.69;98697.50;4199963;28;5527;-69
2022/01/28 09:43:26;;;;;;;;;;;;;;;4.40;81.49;98698.84;4217746;28;5632;-69
2022/01/28 09:45:28;;;;;;;;;;;;;;;4.41;81.28;98703.13;4198818;28;5547;-69
2022/01/28 09:47:30;;;;;;;;;;;;;;;4.35;80.89;98708.81;4215594;28;5620;-69
2022/01/28 09:49:32;;;;;;;;;;;;;;;4.41;81.27;98707.53;4198256;28;5563;-69
2022/01/28 09:51:33;;;;;;;;;;;;;;;4.40;79.53;98704.09;4216715;28;5818;-69
2022/01/28 09:53:35;;;;;;;;;;;;;;;4.27;79.65;98713.75;4215686;28;5647;-69
2022/01/28 09:55:36;;;;;;;;;;;;;;;4.24;79.74;98716.59;4216878;28;5635;-69
2022/01/28 09:57:38;;;;;;;;;;;;;;;4.41;80.07;98718.84;4215023;28;5638;-68
2022/01/28 09:59:40;;;;;;;;;;;;;;;4.50;80.21;98722.63;4217474;28;5616;-68
2022/01/28 10:01:52;;;;;;;;;;;;;;;4.46;79.66;98723.78;4214435;28;5624;-68
2022/01/28 10:04:05;;;;;;;;;;;;;;;4.65;79.73;98721.56;4199908;28;5547;-69
2022/01/28 10:06:07;;;;;;;;;;;;;;;4.74;79.82;98720.03;4207559;28;5612;-69
2022/01/28 10:08:18;;;;;;;;;;;;;;;4.71;78.29;98726.34;4212102;28;5608;-69
2022/01/28 10:10:20;;;;;;;;;;;;;;;4.69;77.75;98723.00;4217702;28;5088;-68
2022/01/28 10:12:41;;;;;;;;;;;;;;;4.73;78.76;98715.75;4216631;28;5616;-69
2022/01/28 10:15:16;;;;;;;;;;;;;;;4.88;79.00;98718.13;4217725;28;5680;-68
2022/01/28 10:17:17;;;;;;;;;;;;;;;4.85;78.56;98718.31;4199119;28;5545;-68
2022/01/28 10:19:19;;;;;;;;;;;;;;;4.83;77.74;98722.84;4219231;28;5711;-68
2022/01/28 10:21:37;;;;;;;;;;;;;;;4.81;78.05;98722.13;4220576;28;5620;-68
2022/01/28 10:23:38;;;;;;;;;;;;;;;4.78;78.70;98717.09;4218582;28;5623;-68
2022/01/28 10:25:42;;;;;;;;;;;;;;;4.84;78.47;98718.44;4220496;28;5631;-70
2022/01/28 10:27:58;;;;;;;;;;;;;;;4.96;78.72;98730.66;4200997;28;5881;-69
2022/01/28 10:30:05;;;;;;;;;;;;;;;4.93;78.44;98725.66;4198982;28;5563;-69
2022/01/28 10:32:12;;;;;;;;;;;;;;;4.91;77.52;98717.91;4220713;28;5620;-69
2022/01/28 10:34:24;;;;;;;;;;;;;;;4.89;77.55;98709.31;4202341;28;5531;-69
2022/01/28 10:36:26;;;;;;;;;;;;;;;4.80;76.96;98704.72;4220926;28;5604;-69
2022/01/28 10:38:29;;;;;;;;;;;;;;;4.89;77.81;98698.81;4220583;28;6324;-69
2022/01/28 10:40:30;;;;;;;;;;;;;;;5.00;78.24;98691.97;4202506;28;5705;-69
2022/01/28 10:42:42;;;;;;;;;;;;;;;5.02;77.51;98693.53;4220259;28;6404;-69
2022/01/28 10:44:55;;;;;;;;;;;;;;;5.02;77.66;98688.28;4220213;28;5647;-71
2022/01/28 10:46:59;;;;;;;;;;;;;;;4.89;77.78;98684.88;4220385;28;5607;-69
2022/01/28 10:49:04;;;;;;;;;;;;;;;5.01;77.71;98691.03;4220587;28;5623;-69
2022/01/28 10:51:06;;;;;;;;;;;;;;;5.08;78.13;98692.22;4220087;28;5616;-69
2022/01/28 10:53:11;;;;;;;;;;;;;;;5.11;77.98;98692.84;4220320;28;5612;-69
2022/01/28 10:55:18;;;;;;;;;;;;;;;5.14;77.96;98689.16;4220508;28;5683;-69
2022/01/28 10:57:20;;;;;;;;;;;;;;;5.15;78.42;98681.19;4220255;28;5620;-68
2022/01/28 10:59:27;;;;;;;;;;;;;;;5.00;77.03;98679.69;4220125;28;5638;-68
2022/01/28 11:01:28;;;;;;;;;;;;;;;5.07;77.27;98685.31;4220188;28;6300;-68
2022/01/28 11:03:31;;;;;;;;;;;;;;;5.08;76.53;98681.75;4220513;28;5635;-69
2022/01/28 11:05:35;;;;;;;;;;;;;;;4.82;78.34;98675.78;4220054;28;5694;-70
2022/01/28 11:07:38;;;;;;;;;;;;;;;4.95;78.09;98677.41;4220249;28;6272;-68
2022/01/28 11:09:40;;;;;;;;;;;;;;;5.12;77.93;98683.22;4219946;28;5616;-69
2022/01/28 11:11:43;;;;;;;;;;;;;;;5.20;78.07;98679.03;4201732;28;6220;-68
2022/01/28 11:13:48;;;;;;;;;;;;;;;5.17;77.74;98674.03;4219796;28;5616;-68
2022/01/28 11:15:50;;;;;;;;;;;;;;;5.20;77.91;98673.81;4219851;28;5728;-69
2022/01/28 11:17:53;;;;;;;;;;;;;;;5.20;77.60;98673.81;4220319;28;5099;-69
2022/01/28 11:19:55;;;;;;;;;;;;;;;5.26;77.85;98670.75;4220415;28;7812;-69
2022/01/28 11:22:20;;;;;;;;;;;;;;;5.30;78.07;98673.13;4220376;28;5616;-69
2022/01/28 11:24:42;;;;;;;;;;;;;;;5.31;77.74;98659.06;4203721;28;5660;-69
2022/01/28 11:27:35;;;;;;;;;;;;;;;5.41;78.32;98657.44;4219730;28;5687;-68
2022/01/28 11:29:37;;;;;;;;;;;;;;;5.43;77.61;98653.72;4135244;28;5728;-69
2022/01/28 11:31:47;;;;;;;;;;;;;;;5.52;77.80;98646.97;4151414;28;6697;-69
2022/01/28 11:33:50;;;;;;;;;;;;;;;5.47;77.41;98649.09;4151397;28;5869;-69
2022/01/28 11:35:52;;;;;;;;;;;;;;;5.50;77.35;98651.50;4151588;28;5712;-69
2022/01/28 11:37:56;;;;;;;;;;;;;;;5.60;77.69;98641.97;4151626;28;6538;-69
2022/01/28 11:40:13;;;;;;;;;;;;;;;5.64;77.78;98638.16;4151210;28;5616;-69
2022/01/28 11:42:26;;;;;;;;;;;;;;;5.63;77.51;98630.41;4151336;28;5699;-69
2022/01/28 11:44:54;;;;;;;;;;;;;;;5.60;77.70;98628.84;4151102;28;5745;-69
2022/01/28 11:47:00;;;;;;;;;;;;;;;5.58;77.95;98627.31;4135062;28;5727;-69
2022/01/28 11:49:04;;;;;;;;;;;;;;;5.39;77.33;98627.84;4151527;28;5711;-69
2022/01/28 11:51:05;;;;;;;;;;;;;;;5.53;77.75;98627.63;4152063;28;5696;-68
2022/01/28 11:53:24;;;;;;;;;;;;;;;5.48;77.70;98621.91;4153021;28;5700;-67
2022/01/28 11:55:25;;;;;;;;;;;;;;;5.59;77.38;98619.31;4153258;28;5716;-68
2022/01/28 11:57:28;;;;;;;;;;;;;;;5.60;76.82;98618.38;4136155;28;5736;-68
2022/01/28 11:59:30;;;;;;;;;;;;;;;5.52;76.74;98615.47;4151302;28;7793;-69
2022/01/28 12:01:38;;;;;;;;;;;;;;;5.42;76.70;98612.72;4134912;28;5730;-68
2022/01/28 12:03:40;;;;;;;;;;;;;;;5.41;77.03;98611.03;4178395;28;5631;-68
2022/01/28 12:05:42;;;;;;;;;;;;;;;5.53;76.81;98615.34;4184336;28;5555;-70
2022/01/28 12:07:46;;;;;;;;;;;;;;;5.47;76.50;98605.34;4215089;28;5754;-69
2022/01/28 12:09:50;;;;;;;;;;;;;;;5.53;76.52;98610.09;4218962;28;5628;-70
2022/01/28 12:11:52;;;;;;;;;;;;;;;5.25;76.38;98618.41;4219230;28;5627;-69
2022/01/28 12:14:02;;;;;;;;;;;;;;;5.25;77.17;98618.41;4219085;28;5667;-68
2022/01/28 12:16:11;;;;;;;;;;;;;;;5.36;77.60;98607.94;4219179;28;5763;-69
2022/01/28 12:18:12;;;;;;;;;;;;;;;5.32;77.09;98603.88;4219291;28;5612;-68
2022/01/28 12:20:24;;;;;;;;;;;;;;;5.41;77.06;98597.09;4200741;28;5607;-69
2022/01/28 12:22:25;;;;;;;;;;;;;;;5.43;76.65;98587.31;4200901;28;5535;-69
2022/01/28 12:24:27;;;;;;;;;;;;;;;5.23;77.02;98584.44;4218807;28;5623;-69
2022/01/28 12:27:14;;;;;;;;;;;;;;;5.36;76.75;98575.66;4200853;28;5528;-69
2022/01/28 12:29:28;;;;;;;;;;;;;;;5.31;76.72;98578.59;4197863;28;5555;-69
2022/01/28 12:31:35;;;;;;;;;;;;;;;5.37;75.87;98580.78;4200440;28;5599;-68
2022/01/28 12:33:46;;;;;;;;;;;;;;;5.17;75.20;98581.44;4218688;28;6373;-68
2022/01/28 12:35:51;;;;;;;;;;;;;;;5.02;75.61;98566.88;4200875;28;6176;-70
2022/01/28 12:37:59;;;;;;;;;;;;;;;5.20;76.17;98565.47;4200471;28;6200;-69
2022/01/28 12:40:13;;;;;;;;;;;;;;;5.22;75.45;98567.03;4200321;28;5082;-69
2022/01/28 12:44:23;;;;;;;;;;;;;;;5.33;74.77;98565.41;4201695;28;5668;-68
2022/01/28 12:46:28;;;;;;;;;;;;;;;5.39;75.02;98565.75;4200692;28;5559;-68
2022/01/28 12:48:30;;;;;;;;;;;;;;;5.49;74.52;98561.47;4201938;28;5652;-68
2022/01/28 12:50:32;;;;;;;;;;;;;;;5.54;74.70;98553.22;4201488;28;5665;-69
2022/01/28 12:52:36;;;;;;;;;;;;;;;5.60;74.89;98560.63;4200733;28;5603;-69
2022/01/28 12:54:44;;;;;;;;;;;;;;;5.58;75.07;98554.69;4201048;28;5539;-68
2022/01/28 12:56:48;;;;;;;;;;;;;;;5.61;75.24;98554.44;4200493;28;6098;-69
2022/01/28 12:58:51;;;;;;;;;;;;;;;5.58;75.60;98553.84;4201781;28;5820;-68
2022/01/28 13:00:53;;;;;;;;;;;;;;;5.65;75.53;98544.53;4200305;28;5552;-68
2022/01/28 13:02:56;;;;;;;;;;;;;;;5.72;75.42;98546.56;4201658;28;5736;-68
2022/01/28 13:05:21;;;;;;;;;;;;;;;5.74;75.00;98544.66;4201858;28;5667;-68
2022/01/28 13:09:32;;;;;;;;;;;;;;;5.65;75.49;98540.13;4201708;28;5672;-69
2022/01/28 13:11:41;;;;;;;;;;;;;;;5.75;75.35;98529.72;4201966;28;5758;-68
2022/01/28 13:13:50;;;;;;;;;;;;;;;5.87;75.78;98533.19;4201936;28;5649;-68
2022/01/28 13:15:57;;;;;;;;;;;;;;;5.80;76.20;98532.84;4200303;28;5543;-69
2022/01/28 13:18:02;;;;;;;;;;;;;;;5.91;76.00;98529.41;4198964;28;5539;-68
2022/01/28 13:20:06;;;;;;;;;;;;;;;5.87;75.74;98522.69;4195774;28;5653;-75
2022/01/28 13:22:08;;;;;;;;;;;;;;;5.90;76.05;98522.47;4189366;28;5605;-75
2022/01/28 13:24:19;;;;;;;;;;;;;;;5.81;76.29;98509.09;4194878;28;5657;-76
2022/01/28 13:26:20;;;;;;;;;;;;;;;5.69;76.19;98510.06;4189205;28;5536;-76
2022/01/28 13:28:22;;;;;;;;;;;;;;;5.73;76.77;98511.50;4167975;28;5572;-76
2022/01/28 13:30:25;;;;;;;;;;;;;;;5.77;75.66;98510.28;4196071;28;5603;-76
2022/01/28 13:32:36;;;;;;;;;;;;;;;5.66;75.32;98507.66;4197714;28;5548;-76
2022/01/28 13:34:48;;;;;;;;;;;;;;;5.82;75.89;98496.81;4198648;28;5668;-76
2022/01/28 13:36:53;;;;;;;;;;;;;;;5.89;76.35;98499.78;4199366;28;5858;-76
2022/01/28 13:38:55;;;;;;;;;;;;;;;5.90;75.41;98490.97;4198658;28;5620;-70
2022/01/28 13:40:57;;;;;;;;;;;;;;;5.92;75.11;98489.09;4200121;28;5673;-67
2022/01/28 13:43:17;;;;;;;;;;;;;;;5.90;75.34;98486.59;4187309;28;5544;-68
2022/01/28 13:45:31;;;;;;;;;;;;;;;5.89;75.30;98479.63;4198348;28;5827;-68
2022/01/28 13:47:53;;;;;;;;;;;;;;;5.90;74.74;98488.34;4198280;28;5661;-68
2022/01/28 13:49:58;;;;;;;;;;;;;;;5.98;75.10;98485.94;4178667;28;5781;-68
2022/01/28 13:52:09;;;;;;;;;;;;;;;6.00;74.82;98489.28;4202842;28;5667;-68
2022/01/28 13:54:15;;;;;;;;;;;;;;;5.95;73.79;98488.81;4202151;28;6225;-68
2022/01/28 13:56:17;;;;;;;;;;;;;;;5.95;74.05;98497.53;4201706;28;5539;-69
2022/01/28 13:58:19;;;;;;;;;;;;;;;5.99;74.04;98491.06;4199007;28;5919;-69
2022/01/28 14:00:21;;;;;;;;;;;;;;;6.04;73.52;98483.69;4201630;28;5669;-69
2022/01/28 14:02:23;;;;;;;;;;;;;;;6.05;73.00;98481.88;4201473;28;5668;-69
2022/01/28 14:04:27;;;;;;;;;;;;;;;6.12;73.38;98481.28;4202128;28;5751;-69
2022/01/28 14:06:32;;;;;;;;;;;;;;;6.21;73.63;98481.47;4198738;28;5689;-68
2022/01/28 14:08:51;;;;;;;;;;;;;;;6.22;74.24;98485.75;4195094;28;5546;-69
2022/01/28 14:10:53;;;;;;;;;;;;;;;6.29;73.87;98487.78;4200091;28;5665;-69
2022/01/28 14:12:56;;;;;;;;;;;;;;;6.34;72.99;98485.63;4201682;28;5603;-69
2022/01/28 14:15:10;;;;;;;;;;;;;;;6.34;72.80;98475.13;4200709;28;5676;-68
2022/01/28 14:17:11;;;;;;;;;;;;;;;6.30;72.60;98494.69;4201401;28;6337;-69
2022/01/28 14:19:14;;;;;;;;;;;;;;;6.34;73.31;98485.63;4203478;28;6329;-68
2022/01/28 14:21:16;;;;;;;;;;;;;;;6.39;73.14;98488.69;4201556;28;5799;-69
2022/01/28 14:23:17;;;;;;;;;;;;;;;6.35;73.18;98483.81;4198549;28;5677;-74
2022/01/28 14:25:21;;;;;;;;;;;;;;;6.46;72.74;98490.84;4196411;28;5933;-71
2022/01/28 14:31:41;;;;;;;;;;;;;;;6.46;72.27;98483.78;4201195;28;6488;-70
2022/01/28 14:33:45;;;;;;;;;;;;;;;6.53;72.25;98476.22;4202756;28;5780;-70
2022/01/28 14:35:58;;;;;;;;;;;;;;;6.55;71.78;98477.75;4201439;28;5911;-70
2022/01/28 14:38:04;;;;;;;;;;;;;;;6.56;71.87;98479.41;4197934;28;5694;-71
2022/01/28 14:40:12;;;;;;;;;;;;;;;6.58;71.15;98474.06;4196502;28;5566;-69
2022/01/28 14:42:15;;;;;;;;;;;;;;;6.62;72.13;98478.09;4183336;28;5558;-69
2022/01/28 14:44:17;;;;;;;;;;;;;;;6.50;71.20;98479.09;4195158;28;5819;-70
2022/01/28 14:46:25;;;;;;;;;;;;;;;6.40;70.46;98477.22;4196074;28;5731;-67
2022/01/28 14:48:28;;;;;;;;;;;;;;;6.50;71.55;98479.09;4198798;28;5684;-71
2022/01/28 14:50:30;;;;;;;;;;;;;;;6.52;70.79;98472.75;4211567;28;5925;-70
2022/01/28 14:52:31;;;;;;;;;;;;;;;6.54;70.76;98475.25;4201075;28;5796;-69
2022/01/28 14:54:33;;;;;;;;;;;;;;;6.61;71.83;98474.63;4196462;28;5716;-69
2022/01/28 14:56:35;;;;;;;;;;;;;;;6.61;70.10;98476.41;4196798;28;5607;-69
2022/01/28 14:59:15;;;;;;;;;;;;;;;6.58;71.06;98479.31;4190409;22;6071;-72
2022/01/28 15:01:36;;;;;;;;;;;;;;;6.52;71.33;98483.25;4159817;23;5692;-71
2022/01/28 15:03:38;;;;;;;;;;;;;;;6.59;70.71;98484.44;4125866;28;5990;-70
2022/01/28 15:05:42;;;;;;;;;;;;;;;6.56;70.23;98475.94;4152441;28;5989;-68
2022/01/28 15:07:45;;;;;;;;;;;;;;;6.52;70.52;98480.63;4156970;22;6482;-67
2022/01/28 15:09:51;;;;;;;;;;;;;;;6.40;70.36;98484.28;4149400;28;5892;-68
2022/01/28 15:11:56;;;;;;;;;;;;;;;6.45;69.81;98489.13;4179606;28;5824;-70
2022/01/28 15:14:02;;;;;;;;;;;;;;;6.45;70.09;98491.75;4174833;28;5899;-68
2022/01/28 15:16:04;;;;;;;;;;;;;;;6.40;69.71;98492.16;4171044;28;5789;-71
2022/01/28 15:18:06;;;;;;;;;;;;;;;6.37;69.58;98492.41;4177304;28;5775;-69
2022/01/28 15:20:18;;;;;;;;;;;;;;;6.45;69.69;98497.00;4179947;28;5807;-72
2022/01/28 15:22:19;;;;;;;;;;;;;;;6.45;68.92;98492.59;4178279;28;5826;-69
2022/01/28 15:24:24;;;;;;;;;;;;;;;6.39;68.71;98488.69;4172323;28;5761;-70
2022/01/28 15:26:26;;;;;;;;;;;;;;;6.32;68.92;98497.19;4176992;28;6104;-69
2022/01/28 15:28:36;;;;;;;;;;;;;;;6.39;69.58;98499.19;4181091;28;5845;-71
2022/01/28 15:37:30;;;;;;;;;;;;;;;6.46;69.84;98503.97;4165280;28;5813;-66
2022/01/28 15:39:35;;;;;;;;;;;;;;;6.42;68.23;98509.44;4165897;28;5836;-67
2022/01/28 15:41:38;;;;;;;;;;;;;;;6.29;69.01;98508.78;4162572;28;5829;-67
2022/01/28 15:43:41;;;;;;;;;;;;;;;6.34;69.49;98505.78;4165433;28;5905;-69
2022/01/28 15:45:51;;;;;;;;;;;;;;;6.40;69.32;98508.75;4168021;28;5732;-68
2022/01/28 15:47:54;;;;;;;;;;;;;;;6.35;69.62;98507.47;4168201;28;5800;-67
2022/01/28 15:49:56;;;;;;;;;;;;;;;6.36;69.99;98511.75;4174347;28;5873;-67
2022/01/28 15:51:57;;;;;;;;;;;;;;;6.36;70.06;98503.88;4166176;28;5833;-67
2022/01/28 15:53:59;;;;;;;;;;;;;;;6.30;70.03;98499.94;4164872;28;5849;-69
2022/01/28 15:56:02;;;;;;;;;;;;;;;6.32;70.60;98502.44;4161189;28;6226;-69
2022/01/28 15:58:12;;;;;;;;;;;;;;;6.33;70.47;98502.31;4148497;28;5142;-69
2022/01/28 16:00:14;;;;;;;;;;;;;;;6.29;71.20;98498.28;4159520;28;5869;-69
2022/01/28 16:02:16;;;;;;;;;;;;;;;6.31;71.37;98512.13;4160649;28;5837;-69
2022/01/28 16:04:19;;;;;;;;;;;;;;;6.36;71.50;98503.88;4177332;28;5855;-69
2022/01/28 16:06:21;;;;;;;;;;;;;;;6.36;71.34;98511.75;4163214;28;5883;-69
2022/01/28 16:08:22;;;;;;;;;;;;;;;6.30;71.73;98510.44;4165594;28;5830;-69
2022/01/28 16:10:34;;;;;;;;;;;;;;;6.30;72.03;98499.94;4164591;28;5977;-69
2022/01/28 16:14:46;;;;;;;;;;;;;;;6.21;71.48;98505.94;4170287;28;5831;-69
2022/01/28 16:17:24;;;;;;;;;;;;;;;6.22;70.43;98506.78;4166270;28;5856;-70
2022/01/28 16:19:26;;;;;;;;;;;;;;;6.23;70.54;98496.16;4149926;28;5855;-70
2022/01/28 16:21:28;;;;;;;;;;;;;;;6.27;71.31;98500.19;4163523;28;5822;-70
2022/01/28 16:23:30;;;;;;;;;;;;;;;6.30;71.00;98494.69;4160836;28;5837;-69
2022/01/28 16:25:33;;;;;;;;;;;;;;;6.33;71.04;98502.31;4162699;28;5861;-70
2022/01/28 16:27:34;;;;;;;;;;;;;;;6.38;71.22;98502.78;4143537;28;6059;-70
2022/01/28 16:29:41;;;;;;;;;;;;;;;6.40;70.80;98506.13;4160360;28;5831;-70
2022/01/28 16:31:43;;;;;;;;;;;;;;;6.39;70.68;98504.44;4159027;28;5836;-70
2022/01/28 16:33:46;;;;;;;;;;;;;;;6.37;70.67;98503.75;4163758;28;5844;-69
2022/01/28 16:35:52;;;;;;;;;;;;;;;6.29;69.06;98503.53;4147370;28;5822;-69
2022/01/28 16:37:58;;;;;;;;;;;;;;;6.07;69.26;98496.53;4146227;28;5862;-69
2022/01/28 16:40:07;;;;;;;;;;;;;;;6.08;69.81;98506.09;4145407;28;6615;-70
2022/01/28 16:42:25;;;;;;;;;;;;;;;6.20;70.38;98513.94;4146363;28;5990;-69
2022/01/28 16:44:27;;;;;;;;;;;;;;;6.25;69.97;98517.03;4145953;28;5787;-68
2022/01/28 16:46:30;;;;;;;;;;;;;;;6.28;68.88;98511.53;4129428;28;5949;-68
2022/01/28 16:48:32;;;;;;;;;;;;;;;6.19;68.92;98514.91;4146188;28;6026;-68
2022/01/28 16:50:34;;;;;;;;;;;;;;;6.13;69.36;98518.88;4140386;28;5902;-68
2022/01/28 16:52:37;;;;;;;;;;;;;;;6.03;69.05;98520.56;4145314;28;6591;-68
2022/01/28 16:54:39;;;;;;;;;;;;;;;5.92;69.45;98517.97;4147197;28;5796;-68
2022/01/28 16:56:40;;;;;;;;;;;;;;;5.85;69.68;98520.19;4147109;28;5858;-68
2022/01/28 16:58:42;;;;;;;;;;;;;;;5.93;69.52;98509.94;4148314;28;6048;-69
2022/01/28 17:00:44;;;;;;;;;;;;;;;5.81;69.38;98516.16;4148122;28;5990;-69
2022/01/28 17:02:49;;;;;;;;;;;;;;;5.80;69.90;98517.09;4145201;28;5859;-70
2022/01/28 17:04:50;;;;;;;;;;;;;;;5.89;69.57;98518.13;4131436;28;5795;-70
2022/01/28 17:06:52;;;;;;;;;;;;;;;5.83;69.20;98519.47;4133043;28;5950;-70